createdAt,value
2019-01-28T05:22:56.897Z,134.45
2019-01-28T05:25:55.614Z,137.47
2019-01-28T05:28:57.877Z,143.82
2019-01-28T05:31:51.492Z,134.90
2019-01-28T05:34:48.174Z,139.60
2019-01-28T05:37:44.156Z,128.00
2019-01-28T05:40:40.004Z,136.95
2019-01-28T05:43:34.816Z,132.80
2019-01-28T05:46:32.935Z,155.50
2019-01-28T05:50:14.284Z,154.93
2019-01-28T05:53:05.940Z,131.43
2019-01-28T05:56:00.481Z,132.55
2019-01-28T05:58:55.353Z,137.12
2019-01-28T06:01:50.150Z,142.62
2019-01-28T06:04:45.381Z,140.92
2019-01-28T06:07:44.371Z,141.65
2019-01-28T06:10:42.421Z,141.68
2019-01-28T06:17:03.772Z,135.70
2019-01-28T06:20:43.128Z,127.67
2019-01-28T06:23:37.703Z,125.95
2019-01-28T06:26:36.540Z,125.40
2019-01-28T06:29:32.544Z,133.63
2019-01-28T06:32:30.665Z,132.72
2019-01-28T06:35:25.882Z,118.40
2019-01-28T06:38:21.055Z,132.32
2019-01-28T06:41:16.228Z,122.53
2019-01-28T06:44:11.451Z,121.17
2019-01-28T06:47:08.053Z,120.92
2019-01-28T06:50:07.090Z,127.02
2019-01-28T06:53:02.624Z,140.97
2019-01-28T06:55:57.956Z,125.80
2019-01-28T06:58:53.046Z,127.30
2019-01-28T07:01:51.529Z,142.13
2019-01-28T07:04:46.573Z,118.42
2019-01-28T07:07:54.114Z,127.07
2019-01-28T07:10:53.011Z,131.67
2019-01-28T07:13:50.927Z,117.03
2019-01-28T07:17:00.410Z,135.60
2019-01-28T07:23:23.659Z,139.22
2019-01-28T07:26:20.297Z,142.57
2019-01-28T07:29:24.998Z,135.72
2019-01-28T07:32:21.023Z,148.85
2019-01-28T07:35:16.864Z,127.47
2019-01-28T07:38:15.753Z,131.72
2019-01-28T07:41:16.000Z,130.07
2019-01-28T07:44:36.440Z,132.05
2019-01-28T07:47:41.700Z,133.97
2019-01-28T07:50:37.237Z,120.33
2019-01-28T07:53:32.758Z,125.20
2019-01-28T07:56:45.362Z,134.25
2019-01-28T07:59:38.011Z,131.52
2019-01-28T08:02:36.860Z,127.00
2019-01-28T08:05:42.729Z,127.38
2019-01-28T08:08:41.755Z,128.40
2019-01-28T08:14:49.526Z,149.93
2019-01-28T08:17:54.956Z,143.90
2019-01-28T08:21:00.073Z,132.40
2019-01-28T08:24:04.491Z,122.75
2019-01-28T08:27:04.781Z,132.90
2019-01-28T08:30:02.886Z,154.15
2019-01-28T08:33:13.558Z,131.47
2019-01-28T08:36:09.462Z,123.28
2019-01-28T08:39:05.512Z,123.22
2019-01-28T08:42:01.196Z,116.80
2019-01-28T08:44:59.074Z,130.25
2019-01-28T08:47:54.664Z,101.05
2019-01-28T08:50:56.139Z,98.97
2019-01-28T08:53:56.418Z,102.65
2019-01-28T08:56:52.632Z,131.25
2019-01-28T08:59:48.931Z,106.10
2019-01-28T09:02:48.814Z,111.22
2019-01-28T09:05:45.194Z,104.55
2019-01-28T09:08:43.430Z,104.00
2019-01-28T09:11:42.625Z,120.00
2019-01-28T09:15:06.086Z,92.75
2019-01-28T09:18:04.279Z,104.47
2019-01-28T09:21:00.147Z,97.47
2019-01-28T09:27:18.702Z,98.12
2019-01-28T09:31:00.447Z,98.80
2019-01-28T09:36:41.928Z,107.85
2019-01-28T09:39:40.047Z,115.80
2019-01-28T09:42:35.611Z,108.95
2019-01-28T09:45:44.652Z,116.22
2019-01-28T09:48:55.550Z,99.58
2019-01-28T09:52:02.270Z,104.35
2019-01-28T09:55:01.673Z,91.95
2019-01-28T10:01:07.668Z,113.77
2019-01-28T10:04:04.585Z,102.70
2019-01-28T10:10:25.959Z,91.50
2019-01-28T10:13:36.119Z,100.75
2019-01-28T10:16:51.928Z,96.53
2019-01-28T10:19:49.895Z,99.75
2019-01-28T10:22:46.477Z,104.03
2019-01-28T10:25:44.121Z,91.78
2019-01-28T10:28:44.641Z,111.35
2019-01-28T10:31:43.567Z,92.35
2019-01-28T10:34:38.478Z,89.42
2019-01-28T10:37:33.967Z,79.32
2019-01-28T10:40:32.097Z,94.77
2019-01-28T10:43:45.286Z,103.62
2019-01-28T10:46:44.006Z,91.32
2019-01-28T10:49:47.562Z,94.03
2019-01-28T10:52:51.008Z,90.50
2019-01-28T10:55:55.148Z,92.78
2019-01-28T10:58:56.766Z,92.67
2019-01-28T11:05:35.906Z,97.10
2019-01-28T11:15:10.845Z,91.75
2019-01-28T11:18:11.826Z,91.15
2019-01-28T11:21:09.767Z,104.45
2019-01-28T11:24:25.928Z,97.35
2019-01-28T11:27:21.004Z,94.97
2019-01-28T11:30:22.127Z,101.02
2019-01-28T11:33:30.044Z,112.95
2019-01-28T11:36:26.659Z,86.45
2019-01-28T11:39:31.600Z,96.80
2019-01-28T11:42:29.214Z,89.97
2019-01-28T11:45:31.500Z,125.62
2019-01-28T11:48:56.915Z,99.13
2019-01-28T11:51:53.810Z,104.78
2019-01-28T11:55:04.988Z,99.32
2019-01-28T11:58:03.689Z,102.05
2019-01-28T12:01:32.065Z,123.80
2019-01-28T12:04:43.315Z,102.97
2019-01-28T12:07:39.176Z,110.05
2019-01-28T12:10:34.329Z,127.30
2019-01-28T12:13:29.660Z,109.87
2019-01-28T12:16:25.009Z,118.90
2019-01-28T12:19:19.989Z,125.33
2019-01-28T12:22:16.650Z,120.80
2019-01-28T12:25:13.184Z,118.50
2019-01-28T12:28:09.062Z,142.95
2019-01-28T12:31:03.889Z,149.62
2019-01-28T12:33:58.895Z,151.02
2019-01-28T12:40:08.307Z,157.03
2019-01-28T12:43:12.076Z,147.32
2019-01-28T12:46:25.799Z,205.52
2019-01-28T12:49:31.496Z,173.82
2019-01-28T12:52:40.038Z,177.45
2019-01-28T12:55:47.696Z,162.68
2019-01-28T14:00:49.800Z,246.10
2019-01-28T14:03:44.847Z,264.70
2019-01-28T14:06:40.270Z,275.00
2019-01-28T14:09:35.348Z,274.85
2019-01-28T14:12:39.268Z,285.38
2019-01-28T14:15:37.290Z,278.05
2019-01-28T14:18:42.768Z,261.87
2019-01-28T14:21:38.434Z,274.40
2019-01-28T14:24:41.867Z,282.10
2019-01-28T14:27:42.014Z,296.43
2019-01-28T14:30:42.761Z,253.60
2019-01-28T15:14:32.327Z,402.65
2019-01-28T15:27:30.078Z,406.90
2019-01-28T15:31:12.612Z,333.40
2019-01-28T15:34:31.667Z,267.25
2019-01-28T15:37:36.950Z,297.52
2019-01-28T15:41:24.835Z,432.82
2019-01-28T15:44:59.525Z,432.50
2019-01-28T16:01:48.081Z,331.87
2019-01-28T16:05:08.877Z,366.68
2019-01-28T16:08:36.006Z,365.23
2019-01-28T16:25:16.723Z,453.55
2019-01-28T16:28:25.700Z,465.38
2019-01-28T16:32:26.099Z,448.67
2019-01-28T16:35:28.105Z,473.70
2019-01-28T16:38:35.825Z,437.62
2019-01-28T16:41:59.418Z,392.82
2019-01-28T17:05:37.995Z,373.82
2019-01-28T17:35:39.038Z,281.50
2019-01-28T17:58:43.749Z,158.18
2019-01-28T19:35:25.372Z,150.82
2019-01-28T19:38:33.864Z,139.88
2019-01-28T19:41:42.551Z,128.02
2019-01-28T20:27:40.690Z,128.97
2019-01-28T20:34:43.425Z,126.90
2019-01-28T20:37:48.902Z,123.75
2019-01-28T20:41:16.269Z,160.75
2019-01-28T21:00:54.936Z,122.02
2019-01-28T21:04:14.996Z,117.40
2019-01-28T21:26:59.649Z,122.30
2019-01-28T21:36:44.994Z,99.70
2019-01-28T22:02:31.101Z,72.60
2019-01-28T22:34:47.905Z,79.13
2019-01-28T22:37:51.897Z,81.47
2019-01-28T22:40:59.960Z,84.97
2019-01-28T22:44:03.812Z,80.07
2019-01-28T22:47:16.118Z,81.57
2019-01-28T22:57:10.279Z,91.33
2019-01-28T23:00:25.656Z,92.43
2019-01-28T23:26:23.346Z,83.60
2019-01-28T23:29:36.606Z,86.30
2019-01-28T23:32:41.502Z,88.93
2019-01-28T23:35:46.937Z,84.00
2019-01-28T23:38:50.827Z,104.53
2019-01-28T23:41:59.233Z,106.43
2019-01-28T23:48:57.795Z,115.30
2019-01-28T23:58:40.316Z,101.30
